Aeroporto :
LOGIN :

Iscrizione | Disclaimer

   EN    FR    IT 

 










Sommario :    VFR   VFR Marginale   IFR   IFR Intensivo   IFR Molto Intensivo
Visibilità : 
Base nubi : 
>= 8 km
>= 3000ft
5 / 8 km
1000 / 3000 ft
1500m / 5 km
500 / 1000 ft
800 / 1500m
200 / 500 ft
< 800m
< 200 ft
Simboli :   Temporali  Nebbia  Neve Forte  Precipitazioni Forti  Vento > 20 kt
SIGMETs :   Varie  Temporali  Ghiacco  Turbolenza  Onda orograficha  Ceneri Vulcaniche






- Altitudine del aeroporto : 675 ft
- Codice IATA : RZE


EPRZ - Rzeszow-Jasionka

ULTIMO METAR :
  • 020700Z 09008KT 6000 SCT006 06/05 Q1012

METARs OBSOLETI :
  • 020630Z 09009KT 6000 SCT006 06/05 Q1012
  • 020600Z 09008KT 6000 BKN006 06/05 Q1012
  • 020530Z 09008KT 6000 BKN006 06/05 Q1012
  • 020500Z 09010KT 6000 OVC005 06/05 Q1012
  • 020430Z 09010KT 6000 OVC005 06/05 Q1012
  • 012100Z 10014KT CAVOK 07/05 Q1013
  • 020400Z 09012KT 6000 OVC005 06/05 Q1012
  • 020330Z 09011KT 6000 OVC005 06/05 Q1012
  • 020300Z 08010KT 6000 BKN006 06/05 Q1012
  • 020230Z 09009KT 7000 NSC 06/05 Q1012
  • 020200Z 08010KT 8000 NSC 06/05 Q1012

TAF TAF EPRZ
Valido dal 02 a 06 ore il 03 a 06 ore UTC


020530Z 0206/0306 09010KT 6000 OVC006
PROB40
TEMPO 0206/0208 4000 BR OVC004
BECMG 0208/0211 SCT020
BECMG 0222/0301 BKN006



MetMap, La meteo Aeronautica in un colpo d'occhio ! - Copyright ORBIFLY Dicembre 2007 - Disclaimer

ORBIFLY MET'MAP TEAM :

Programmazione e sviluppo : Alexandra Zaïnal
Concezione : Baudouin d'Aumeries
Supporto tecnico e logistico : Manuel Goepfert
Aiuto : Marc-Olivier Méhu
Aiuto per la traduzione : Arnaldo La Scala




FONTI E CREDITI :

   NOAA